Belle Prairie, Nebraska
Current Conditions -  °F | °C
As of 12:35 AM on Friday 31 Oct 2014 (Local Time) from KHJH Reporting Station
Overcast Overcast  
Wind Chill: 37°   Ceiling: 2300
Heat Index: 44°   Visibility: 10mi
Dew Point: 33°   Wind: 13mph
Humidity: 67%   Direction: 360°N
Pressure: 30.39"   Gusts: 23mph
Location:  40.3936°N, 97.5387°W
Report Text: KHJH 310535Z AUTO 36011G20KT 10SM OVC023 07/01 A3039 RMK AO2 T00650008
Loading
Personal Weather Stations






























Interactive Weather Map
Tropical Storm Tracking
New forecast layout! Learn more

10-Day Weather Forecast

Advertisements
Track Severe Weather on mobile